Time;durP1;ratioP1;P1;durP2;ratioP2;P2;SDS_P1;SDS_P2;PMS_P1;PMS_P2;Temp;Humidity;BMP_temperature;BMP_pressure;BME280_temperature;BME280_humidity;BME280_pressure;Samples;Min_cycle;Max_cycle;Signal;HPM_P1;HPM_P2
2022/01/08 00:01:11;;;;;;;4.38;2.97;;;;;;;;;;5017530;28;20049;-77
2022/01/08 00:03:40;;;;;;;4.95;2.78;;;;;;;;;;5035427;28;20080;-76
2022/01/08 00:06:08;;;;;;;5.00;2.80;;;;;;;;;;5035298;28;20037;-72
2022/01/08 00:08:36;;;;;;;3.10;2.60;;;;;;;;;;5035047;28;20073;-72
2022/01/08 00:11:07;;;;;;;4.30;2.65;;;;;;;;;;5035350;28;20034;-77
2022/01/08 00:13:37;;;;;;;3.47;2.38;;;;;;;;;;5035123;28;20120;-71
2022/01/08 00:16:05;;;;;;;3.30;2.40;;;;;;;;;;5035303;28;20074;-71
2022/01/08 00:18:32;;;;;;;2.97;2.40;;;;;;;;;;5017647;28;20105;-71
2022/01/08 00:21:00;;;;;;;5.47;2.47;;;;;;;;;;5017497;28;20433;-71
2022/01/08 00:23:27;;;;;;;2.88;2.28;;;;;;;;;;5034551;28;20049;-76
2022/01/08 00:25:58;;;;;;;2.45;2.10;;;;;;;;;;5035020;28;20095;-72
2022/01/08 00:28:29;;;;;;;3.28;2.28;;;;;;;;;;5034936;28;20048;-76
2022/01/08 00:30:57;;;;;;;3.88;2.67;;;;;;;;;;5034626;28;20124;-72
2022/01/08 00:33:25;;;;;;;2.35;2.13;;;;;;;;;;5034574;28;20045;-76
2022/01/08 00:35:53;;;;;;;3.97;2.30;;;;;;;;;;5034785;28;20120;-72
2022/01/08 00:38:21;;;;;;;6.18;2.25;;;;;;;;;;5034557;28;20201;-73
2022/01/08 00:40:48;;;;;;;2.53;2.13;;;;;;;;;;5034617;28;20052;-72
2022/01/08 00:43:16;;;;;;;3.35;2.20;;;;;;;;;;5034427;28;20038;-77
2022/01/08 00:45:44;;;;;;;2.92;2.25;;;;;;;;;;5016624;28;20052;-73
2022/01/08 00:48:13;;;;;;;5.30;2.25;;;;;;;;;;5034398;28;20041;-73
2022/01/08 00:50:40;;;;;;;4.60;2.10;;;;;;;;;;5034553;28;20205;-71
2022/01/08 00:53:08;;;;;;;4.05;2.28;;;;;;;;;;5016737;28;20124;-77
2022/01/08 00:55:35;;;;;;;2.60;2.40;;;;;;;;;;5033996;28;20042;-71
2022/01/08 00:58:03;;;;;;;2.47;2.10;;;;;;;;;;5016993;28;20144;-71
2022/01/08 01:00:30;;;;;;;4.90;2.17;;;;;;;;;;5033648;28;20054;-72
2022/01/08 01:02:58;;;;;;;2.42;1.83;;;;;;;;;;5034179;28;20128;-73
2022/01/08 01:05:27;;;;;;;4.18;1.90;;;;;;;;;;5034330;28;20069;-77
2022/01/08 01:07:57;;;;;;;2.72;1.85;;;;;;;;;;5033801;28;20124;-79
2022/01/08 01:10:26;;;;;;;3.70;1.80;;;;;;;;;;5034088;28;20076;-72
2022/01/08 01:12:54;;;;;;;3.08;2.00;;;;;;;;;;5034140;28;20052;-77
2022/01/08 01:15:21;;;;;;;3.35;1.95;;;;;;;;;;5033981;28;20124;-76
2022/01/08 01:17:50;;;;;;;2.78;1.83;;;;;;;;;;5033973;28;20049;-77
2022/01/08 01:20:22;;;;;;;4.20;1.80;;;;;;;;;;5033735;28;20049;-77
2022/01/08 01:23:07;;;;;;;3.15;2.25;;;;;;;;;;5033588;28;20037;-77
2022/01/08 01:25:47;;;;;;;2.20;1.85;;;;;;;;;;5016117;28;20049;-77
2022/01/08 01:28:35;;;;;;;5.45;1.83;;;;;;;;;;5033685;28;20528;-71
2022/01/08 01:47:16;;;;;;;2.17;1.80;;;;;;;;;;5033172;28;20060;-77
2022/01/08 01:49:45;;;;;;;2.70;1.90;;;;;;;;;;5033439;28;20076;-72
2022/01/08 01:52:14;;;;;;;2.88;1.90;;;;;;;;;;5033704;28;20060;-71
2022/01/08 01:54:43;;;;;;;2.53;1.92;;;;;;;;;;5033084;28;20444;-77
2022/01/08 01:57:13;;;;;;;3.15;1.98;;;;;;;;;;5033059;28;20041;-71
2022/01/08 01:59:43;;;;;;;3.60;1.92;;;;;;;;;;5033240;28;20103;-72
2022/01/08 02:02:11;;;;;;;3.85;1.70;;;;;;;;;;5033136;28;20038;-72
2022/01/08 02:04:40;;;;;;;2.08;1.70;;;;;;;;;;5015808;28;20107;-71
2022/01/08 02:07:08;;;;;;;1.95;1.77;;;;;;;;;;5032812;28;20427;-76
2022/01/08 02:09:39;;;;;;;4.60;2.17;;;;;;;;;;5015503;28;20120;-72
2022/01/08 02:12:11;;;;;;;2.65;1.80;;;;;;;;;;5032530;28;20128;-76
2022/01/08 02:14:39;;;;;;;1.90;1.70;;;;;;;;;;5033090;28;20045;-71
2022/01/08 02:17:09;;;;;;;5.70;1.70;;;;;;;;;;5033035;28;20041;-72
2022/01/08 02:19:38;;;;;;;2.58;1.83;;;;;;;;;;5032712;28;20124;-77
2022/01/08 02:22:10;;;;;;;3.20;1.70;;;;;;;;;;5032778;28;20038;-73
2022/01/08 02:24:38;;;;;;;2.33;1.70;;;;;;;;;;5032855;28;20121;-73
2022/01/08 02:27:08;;;;;;;1.85;1.70;;;;;;;;;;5015445;28;20087;-72
2022/01/08 02:29:35;;;;;;;2.58;1.90;;;;;;;;;;5032813;28;20481;-72
2022/01/08 02:32:08;;;;;;;2.95;2.00;;;;;;;;;;5032673;28;20042;-72
2022/01/08 02:34:37;;;;;;;2.10;1.90;;;;;;;;;;5032725;28;20041;-77
2022/01/08 02:37:05;;;;;;;2.78;2.17;;;;;;;;;;5013906;28;20103;-72
2022/01/08 02:39:42;;;;;;;3.20;1.90;;;;;;;;;;5015056;28;20523;-76
2022/01/08 02:42:13;;;;;;;3.08;1.92;;;;;;;;;;5032695;28;20042;-73
2022/01/08 02:44:42;;;;;;;3.27;2.07;;;;;;;;;;5032573;28;20100;-71
2022/01/08 02:47:13;;;;;;;4.75;2.33;;;;;;;;;;5015057;28;20107;-71
2022/01/08 02:49:41;;;;;;;2.95;1.83;;;;;;;;;;5015405;28;20492;-77
2022/01/08 02:52:10;;;;;;;1.90;1.70;;;;;;;;;;5032686;28;20501;-76
2022/01/08 02:54:37;;;;;;;2.42;1.67;;;;;;;;;;5014826;28;20141;-72
2022/01/08 02:57:05;;;;;;;1.60;1.50;;;;;;;;;;5032525;28;20098;-76
2022/01/08 02:59:34;;;;;;;3.78;1.83;;;;;;;;;;5032396;28;20046;-77
2022/01/08 03:02:02;;;;;;;3.17;2.17;;;;;;;;;;5032545;28;20052;-77
2022/01/08 03:04:30;;;;;;;3.33;2.17;;;;;;;;;;4998773;28;20045;-72
2022/01/08 03:06:57;;;;;;;3.60;2.05;;;;;;;;;;5032628;28;20124;-73
2022/01/08 03:09:27;;;;;;;4.18;2.50;;;;;;;;;;5032245;28;20045;-77
2022/01/08 03:11:55;;;;;;;4.90;3.13;;;;;;;;;;4998802;28;20073;-76
2022/01/08 03:14:22;;;;;;;5.20;4.00;;;;;;;;;;5032553;28;20038;-77
2022/01/08 03:16:50;;;;;;;5.55;4.28;;;;;;;;;;5014978;28;20475;-76
2022/01/08 03:19:18;;;;;;;6.07;3.60;;;;;;;;;;5032266;28;20037;-73
2022/01/08 03:21:52;;;;;;;4.05;3.65;;;;;;;;;;5032267;28;20037;-71
2022/01/08 03:24:27;;;;;;;5.07;3.80;;;;;;;;;;5034829;28;20045;-75
2022/01/08 03:26:58;;;;;;;6.22;3.60;;;;;;;;;;5036056;28;20157;-76
2022/01/08 03:29:28;;;;;;;4.55;3.38;;;;;;;;;;5035237;28;20141;-76
2022/01/08 03:31:55;;;;;;;4.22;3.13;;;;;;;;;;5035929;28;20045;-76
2022/01/08 03:34:24;;;;;;;4.10;2.78;;;;;;;;;;5018453;28;20141;-72
2022/01/08 03:36:51;;;;;;;3.40;3.10;;;;;;;;;;5036206;28;20088;-73
2022/01/08 03:39:20;;;;;;;4.78;2.30;;;;;;;;;;5035865;28;20183;-73
2022/01/08 03:41:48;;;;;;;3.75;1.95;;;;;;;;;;5035705;28;20401;-77
2022/01/08 03:44:15;;;;;;;1.90;1.80;;;;;;;;;;5017939;28;20076;-77
2022/01/08 03:46:43;;;;;;;1.73;1.50;;;;;;;;;;5035760;28;20048;-76
2022/01/08 03:49:25;;;;;;;4.82;1.20;;;;;;;;;;5017874;28;20034;-77
2022/01/08 03:51:54;;;;;;;1.55;1.20;;;;;;;;;;5035710;28;20096;-71
2022/01/08 03:54:22;;;;;;;1.65;1.55;;;;;;;;;;5035491;28;20081;-71
2022/01/08 03:56:49;;;;;;;2.65;2.10;;;;;;;;;;5035432;28;20050;-73
2022/01/08 03:59:17;;;;;;;6.43;4.07;;;;;;;;;;5035546;28;20079;-72
2022/01/08 04:01:45;;;;;;;8.75;4.95;;;;;;;;;;5035384;28;20048;-77
2022/01/08 04:04:13;;;;;;;5.13;4.63;;;;;;;;;;5035517;28;20463;-77
2022/01/08 04:06:41;;;;;;;8.60;5.18;;;;;;;;;;5035356;28;20045;-72
2022/01/08 04:09:09;;;;;;;5.93;4.32;;;;;;;;;;5035102;28;20420;-76
2022/01/08 04:11:37;;;;;;;6.63;4.80;;;;;;;;;;5017742;28;20045;-76
2022/01/08 04:14:05;;;;;;;5.97;4.13;;;;;;;;;;5035376;28;20564;-72
2022/01/08 04:16:36;;;;;;;7.35;5.22;;;;;;;;;;5035158;28;20047;-77
2022/01/08 04:19:04;;;;;;;9.00;6.22;;;;;;;;;;5035089;28;20517;-71
2022/01/08 04:24:10;;;;;;;9.35;7.47;;;;;;;;;;5034675;28;20076;-77
2022/01/08 04:26:40;;;;;;;10.27;6.95;;;;;;;;;;5034984;28;20038;-76
2022/01/08 04:29:10;;;;;;;8.23;7.03;;;;;;;;;;5034875;28;20127;-77
2022/01/08 04:31:38;;;;;;;11.50;7.03;;;;;;;;;;5033957;28;20065;-71
2022/01/08 04:34:07;;;;;;;8.80;6.53;;;;;;;;;;5017279;28;20103;-76
2022/01/08 04:36:34;;;;;;;9.90;6.53;;;;;;;;;;5034103;28;20045;-77
2022/01/08 04:39:02;;;;;;;8.05;5.90;;;;;;;;;;5034737;28;20536;-71
2022/01/08 04:41:31;;;;;;;9.55;6.53;;;;;;;;;;5016876;28;20054;-71
2022/01/08 04:43:58;;;;;;;10.07;7.38;;;;;;;;;;5034226;28;20044;-71
2022/01/08 04:46:27;;;;;;;10.10;7.15;;;;;;;;;;5017220;28;20444;-77
2022/01/08 04:48:54;;;;;;;9.05;7.18;;;;;;;;;;5034566;28;20044;-77
2022/01/08 04:51:22;;;;;;;10.75;7.32;;;;;;;;;;5017060;28;20045;-76
2022/01/08 04:53:50;;;;;;;10.10;7.85;;;;;;;;;;5034515;28;20132;-72
2022/01/08 04:56:17;;;;;;;8.85;7.47;;;;;;;;;;5034147;28;20045;-72
2022/01/08 04:58:45;;;;;;;11.70;8.23;;;;;;;;;;5034061;28;20038;-77
2022/01/08 05:01:14;;;;;;;10.20;8.05;;;;;;;;;;5033947;28;20057;-76
2022/01/08 05:03:42;;;;;;;11.23;8.20;;;;;;;;;;5034259;28;20049;-77
2022/01/08 05:06:10;;;;;;;10.30;8.13;;;;;;;;;;5000176;28;20455;-77
2022/01/08 05:08:38;;;;;;;9.32;7.25;;;;;;;;;;5033743;28;20038;-77
2022/01/08 05:11:05;;;;;;;10.48;7.03;;;;;;;;;;5034234;28;20033;-72
2022/01/08 05:13:33;;;;;;;11.95;7.30;;;;;;;;;;5033992;28;20129;-76
2022/01/08 05:16:01;;;;;;;12.90;6.95;;;;;;;;;;5034078;28;20076;-71
2022/01/08 05:18:30;;;;;;;10.10;7.03;;;;;;;;;;5034010;28;20041;-76
2022/01/08 05:23:58;;;;;;;12.35;6.45;;;;;;;;;;5020750;28;20077;-77
2022/01/08 05:26:26;;;;;;;7.97;5.85;;;;;;;;;;5033898;28;20408;-76
2022/01/08 05:28:55;;;;;;;11.43;5.93;;;;;;;;;;5033705;28;20441;-78
2022/01/08 05:31:25;;;;;;;6.18;5.22;;;;;;;;;;5033520;28;20558;-76
2022/01/08 05:33:53;;;;;;;9.50;5.30;;;;;;;;;;5033640;28;20461;-76
2022/01/08 05:36:21;;;;;;;9.35;5.38;;;;;;;;;;5033737;28;20054;-72
2022/01/08 05:38:52;;;;;;;7.03;5.15;;;;;;;;;;5033593;28;20440;-77
2022/01/08 05:41:19;;;;;;;8.65;4.95;;;;;;;;;;5033694;28;20496;-77
2022/01/08 05:43:47;;;;;;;6.80;4.70;;;;;;;;;;5033155;28;20496;-77
2022/01/08 05:46:15;;;;;;;5.32;4.10;;;;;;;;;;5014691;28;20042;-77
2022/01/08 05:48:43;;;;;;;6.00;4.05;;;;;;;;;;5015656;28;20044;-77
2022/01/08 05:51:12;;;;;;;10.18;6.03;;;;;;;;;;5033467;28;20048;-77
2022/01/08 05:53:40;;;;;;;8.88;4.90;;;;;;;;;;5015614;28;20487;-73
2022/01/08 05:56:09;;;;;;;9.55;4.60;;;;;;;;;;5033261;28;20046;-73
2022/01/08 05:58:38;;;;;;;5.72;4.47;;;;;;;;;;5033182;28;20061;-76
2022/01/08 06:01:06;;;;;;;7.32;4.03;;;;;;;;;;5033277;28;20045;-76
2022/01/08 06:03:34;;;;;;;7.00;4.20;;;;;;;;;;5033182;28;20045;-77
2022/01/08 06:06:01;;;;;;;9.52;4.30;;;;;;;;;;5033044;28;20069;-76
2022/01/08 06:08:29;;;;;;;6.57;4.78;;;;;;;;;;5032882;28;20435;-72
2022/01/08 06:10:56;;;;;;;7.38;4.80;;;;;;;;;;5015660;28;20120;-71
2022/01/08 06:13:25;;;;;;;6.93;4.82;;;;;;;;;;5032978;28;20523;-73
2022/01/08 06:15:53;;;;;;;6.28;5.60;;;;;;;;;;5033318;28;20096;-76
2022/01/08 06:18:20;;;;;;;10.82;6.57;;;;;;;;;;5032992;28;20516;-76
2022/01/08 06:20:48;;;;;;;10.25;5.75;;;;;;;;;;5032634;28;20046;-72
2022/01/08 06:23:15;;;;;;;9.32;4.97;;;;;;;;;;5032772;28;20049;-72
2022/01/08 06:25:43;;;;;;;6.22;4.07;;;;;;;;;;5032978;28;20464;-73
2022/01/08 06:28:11;;;;;;;5.22;4.18;;;;;;;;;;5014944;28;20095;-71
2022/01/08 06:30:39;;;;;;;4.53;3.60;;;;;;;;;;5015541;28;20045;-77
2022/01/08 06:33:07;;;;;;;5.18;3.38;;;;;;;;;;5032712;28;20045;-71
2022/01/08 06:35:36;;;;;;;5.25;3.60;;;;;;;;;;5032587;28;20038;-77
2022/01/08 06:38:04;;;;;;;5.25;3.35;;;;;;;;;;5032797;28;20041;-76
2022/01/08 06:40:33;;;;;;;4.53;3.38;;;;;;;;;;5032793;28;20041;-77
2022/01/08 06:43:01;;;;;;;6.10;3.10;;;;;;;;;;5032383;28;20049;-72
2022/01/08 06:45:29;;;;;;;4.50;2.65;;;;;;;;;;5032328;28;20041;-72
2022/01/08 06:47:57;;;;;;;4.30;2.85;;;;;;;;;;5032755;28;20519;-72
2022/01/08 06:50:27;;;;;;;4.43;2.65;;;;;;;;;;5015158;28;20124;-71
2022/01/08 06:52:55;;;;;;;3.97;2.75;;;;;;;;;;4998643;28;20045;-71
2022/01/08 06:55:24;;;;;;;7.68;3.13;;;;;;;;;;5032300;28;20064;-76
2022/01/08 06:57:53;;;;;;;5.00;3.10;;;;;;;;;;5032648;28;20108;-72
2022/01/08 07:00:21;;;;;;;3.35;3.05;;;;;;;;;;5036668;28;20048;-76
2022/01/08 07:02:49;;;;;;;4.95;3.15;;;;;;;;;;5036184;28;20041;-72
2022/01/08 07:05:17;;;;;;;7.90;3.60;;;;;;;;;;5019192;28;20194;-72
2022/01/08 07:07:45;;;;;;;5.25;3.40;;;;;;;;;;5036084;28;20071;-72
2022/01/08 07:10:13;;;;;;;4.35;3.33;;;;;;;;;;5036261;28;20069;-72
2022/01/08 07:12:40;;;;;;;4.57;3.70;;;;;;;;;;5036337;28;20037;-75
2022/01/08 07:15:08;;;;;;;4.57;3.22;;;;;;;;;;5036172;28;20045;-78
2022/01/08 07:17:36;;;;;;;4.07;3.08;;;;;;;;;;5018599;28;20099;-71
2022/01/08 07:20:03;;;;;;;3.30;2.88;;;;;;;;;;5036006;28;20099;-71
2022/01/08 07:22:31;;;;;;;3.05;2.55;;;;;;;;;;5036002;28;20041;-72
2022/01/08 07:25:00;;;;;;;5.03;2.83;;;;;;;;;;5035838;28;20046;-78
2022/01/08 07:27:30;;;;;;;3.85;2.75;;;;;;;;;;5018111;28;20045;-71
2022/01/08 07:29:57;;;;;;;5.35;3.10;;;;;;;;;;5035979;28;20463;-72
2022/01/08 07:32:25;;;;;;;7.88;3.38;;;;;;;;;;5035577;28;20038;-71
2022/01/08 07:34:57;;;;;;;5.50;3.65;;;;;;;;;;5035902;28;20056;-71
2022/01/08 07:37:25;;;;;;;8.88;4.47;;;;;;;;;;5036060;28;20049;-71
2022/01/08 07:39:52;;;;;;;13.45;6.30;;;;;;;;;;5035507;28;20041;-72
2022/01/08 07:42:20;;;;;;;10.55;5.25;;;;;;;;;;5035845;28;20041;-76
2022/01/08 07:44:48;;;;;;;7.72;4.80;;;;;;;;;;5035530;28;20047;-76
2022/01/08 07:47:17;;;;;;;7.95;5.55;;;;;;;;;;5018093;28;20377;-76
2022/01/08 07:49:45;;;;;;;11.25;6.28;;;;;;;;;;5035681;28;20111;-73
2022/01/08 07:52:13;;;;;;;12.73;6.15;;;;;;;;;;5035497;28;20049;-71
2022/01/08 07:54:42;;;;;;;11.10;5.95;;;;;;;;;;5035618;28;20053;-77
2022/01/08 07:57:09;;;;;;;10.88;6.60;;;;;;;;;;5035287;28;20439;-76
2022/01/08 07:59:37;;;;;;;10.30;6.47;;;;;;;;;;5035277;28;20037;-78
2022/01/08 08:02:05;;;;;;;9.30;5.88;;;;;;;;;;5035604;28;20076;-76
2022/01/08 08:04:33;;;;;;;9.25;5.90;;;;;;;;;;5035342;28;20041;-77
2022/01/08 08:07:02;;;;;;;16.00;5.97;;;;;;;;;;5035157;28;20046;-77
2022/01/08 08:09:30;;;;;;;7.85;4.80;;;;;;;;;;5034030;28;20038;-71
2022/01/08 08:11:58;;;;;;;10.27;4.93;;;;;;;;;;5035221;28;20432;-71
2022/01/08 08:14:27;;;;;;;7.30;5.00;;;;;;;;;;5034832;28;20133;-77
2022/01/08 08:16:56;;;;;;;11.05;5.43;;;;;;;;;;5017600;28;20495;-72
2022/01/08 08:19:24;;;;;;;8.95;5.32;;;;;;;;;;5017432;28;20076;-72
2022/01/08 08:21:51;;;;;;;9.15;5.78;;;;;;;;;;5017135;28;20165;-72
2022/01/08 08:24:20;;;;;;;10.20;6.28;;;;;;;;;;5034321;28;20137;-77
2022/01/08 08:26:49;;;;;;;9.52;6.60;;;;;;;;;;5034977;28;20041;-77
2022/01/08 08:29:18;;;;;;;16.88;8.43;;;;;;;;;;5016981;28;20048;-77
2022/01/08 08:31:45;;;;;;;15.70;8.60;;;;;;;;;;5017385;28;20076;-74
2022/01/08 08:34:13;;;;;;;12.05;8.07;;;;;;;;;;5016869;28;20056;-77
2022/01/08 08:36:40;;;;;;;13.88;9.32;;;;;;;;;;5034681;28;20121;-76
2022/01/08 08:39:15;;;;;;;14.13;8.88;;;;;;;;;;5034532;28;20532;-72
2022/01/08 08:41:44;;;;;;;16.98;9.13;;;;;;;;;;5034573;28;20440;-71
2022/01/08 08:44:12;;;;;;;12.07;8.30;;;;;;;;;;5034283;28;20068;-75
2022/01/08 08:46:40;;;;;;;12.85;7.70;;;;;;;;;;5034663;28;20039;-72
2022/01/08 08:49:08;;;;;;;13.57;7.63;;;;;;;;;;5034221;28;20048;-75
2022/01/08 08:51:36;;;;;;;8.80;7.20;;;;;;;;;;5034415;28;20045;-77
2022/01/08 08:54:04;;;;;;;11.15;6.43;;;;;;;;;;5016806;28;20041;-77
2022/01/08 08:56:31;;;;;;;9.80;6.45;;;;;;;;;;5034006;28;20049;-75
2022/01/08 08:58:59;;;;;;;9.00;6.05;;;;;;;;;;5016700;28;20508;-72
2022/01/08 09:01:27;;;;;;;7.70;5.70;;;;;;;;;;5034417;28;20045;-77
2022/01/08 09:03:57;;;;;;;13.13;10.82;;;;;;;;;;5034171;28;20378;-71
2022/01/08 09:06:26;;;;;;;10.10;7.80;;;;;;;;;;5016577;28;20421;-71
2022/01/08 09:08:55;;;;;;;13.75;8.65;;;;;;;;;;5033969;28;20493;-72
2022/01/08 09:11:23;;;;;;;14.32;8.93;;;;;;;;;;5033810;28;20512;-77
2022/01/08 09:13:50;;;;;;;10.90;6.45;;;;;;;;;;5033859;28;20505;-71
2022/01/08 09:16:17;;;;;;;9.35;6.35;;;;;;;;;;5033518;28;20111;-77
2022/01/08 09:18:45;;;;;;;15.50;7.15;;;;;;;;;;5033921;28;20443;-70
2022/01/08 09:21:13;;;;;;;10.95;5.80;;;;;;;;;;5033660;28;20048;-72
2022/01/08 09:23:41;;;;;;;7.22;5.60;;;;;;;;;;5033461;28;20056;-77
2022/01/08 09:26:08;;;;;;;7.95;5.68;;;;;;;;;;5033646;28;20049;-76
2022/01/08 09:28:36;;;;;;;9.05;6.68;;;;;;;;;;5033743;28;20043;-74
2022/01/08 09:31:05;;;;;;;12.23;6.22;;;;;;;;;;5033624;28;20072;-77
2022/01/08 09:33:32;;;;;;;8.38;6.05;;;;;;;;;;5033282;28;20503;-72
2022/01/08 09:36:00;;;;;;;25.23;13.32;;;;;;;;;;5033823;28;20091;-75
2022/01/08 09:38:28;;;;;;;12.75;7.97;;;;;;;;;;5033694;28;20037;-76
2022/01/08 09:40:56;;;;;;;9.82;7.22;;;;;;;;;;5033426;28;20037;-77
2022/01/08 09:43:25;;;;;;;19.02;11.13;;;;;;;;;;5015689;28;20037;-72
2022/01/08 09:45:53;;;;;;;10.55;6.60;;;;;;;;;;5033065;28;20091;-72
2022/01/08 09:48:21;;;;;;;7.85;6.10;;;;;;;;;;5033372;28;20528;-77
2022/01/08 09:50:49;;;;;;;11.20;7.82;;;;;;;;;;5033506;28;20037;-72
2022/01/08 09:53:17;;;;;;;9.45;5.13;;;;;;;;;;5033241;28;20045;-72
2022/01/08 09:55:44;;;;;;;7.18;5.53;;;;;;;;;;5033557;28;20041;-71
2022/01/08 09:58:13;;;;;;;7.68;4.85;;;;;;;;;;5032808;28;20049;-75
2022/01/08 10:00:41;;;;;;;10.93;4.95;;;;;;;;;;5032888;28;20052;-72
2022/01/08 10:03:15;;;;;;;8.70;4.45;;;;;;;;;;5033202;28;20042;-70
2022/01/08 10:05:44;;;;;;;6.47;4.00;;;;;;;;;;5015412;28;20044;-77
2022/01/08 10:08:32;;;;;;;9.27;4.57;;;;;;;;;;5032834;28;20041;-76
2022/01/08 10:11:01;;;;;;;4.60;3.55;;;;;;;;;;5032786;28;20041;-71
2022/01/08 10:13:31;;;;;;;6.53;3.72;;;;;;;;;;5032984;28;20042;-71
2022/01/08 10:18:49;;;;;;;7.72;3.90;;;;;;;;;;5032979;28;20045;-71
2022/01/08 10:21:19;;;;;;;8.45;3.75;;;;;;;;;;5032573;28;20095;-76
2022/01/08 10:23:52;;;;;;;7.65;3.47;;;;;;;;;;5061575;23;20131;-72
2022/01/08 10:26:20;;;;;;;3.85;3.42;;;;;;;;;;5072531;28;20068;-72
2022/01/08 10:28:51;;;;;;;8.93;3.70;;;;;;;;;;5092849;28;20398;-70
2022/01/08 10:31:20;;;;;;;8.88;3.35;;;;;;;;;;5092730;28;20051;-77
2022/01/08 10:33:51;;;;;;;5.95;3.58;;;;;;;;;;5092257;28;20068;-70
2022/01/08 10:36:30;;;;;;;8.38;4.20;;;;;;;;;;5092892;28;20075;-72
2022/01/08 10:39:01;;;;;;;5.45;3.78;;;;;;;;;;5092880;28;20043;-70
2022/01/08 10:41:31;;;;;;;10.93;9.27;;;;;;;;;;5092782;28;20036;-76
2022/01/08 10:44:05;;;;;;;14.00;6.75;;;;;;;;;;5092676;28;20123;-76
2022/01/08 10:46:33;;;;;;;6.35;4.13;;;;;;;;;;5092684;28;20071;-75
2022/01/08 10:49:01;;;;;;;9.27;4.18;;;;;;;;;;5092744;28;20036;-70
2022/01/08 10:51:33;;;;;;;8.60;4.25;;;;;;;;;;5074884;28;20260;-75
2022/01/08 10:54:06;;;;;;;7.13;4.40;;;;;;;;;;5092904;28;20068;-71
2022/01/08 10:56:36;;;;;;;6.32;4.20;;;;;;;;;;5092499;28;20075;-71
2022/01/08 10:59:06;;;;;;;5.75;3.97;;;;;;;;;;5074961;28;20036;-71
2022/01/08 11:01:43;;;;;;;9.75;4.10;;;;;;;;;;5092751;28;20380;-72
2022/01/08 11:04:14;;;;;;;3.50;3.00;;;;;;;;;;5092678;28;20040;-77
2022/01/08 11:07:10;;;;;;;8.57;3.92;;;;;;;;;;5092606;28;20032;-77
2022/01/08 11:09:39;;;;;;;6.30;3.95;;;;;;;;;;5057986;28;20469;-75
2022/01/08 11:12:09;;;;;;;7.10;4.55;;;;;;;;;;5092560;28;20050;-72
2022/01/08 11:17:26;;;;;;;8.85;3.63;;;;;;;;;;5092536;28;20044;-70
2022/01/08 11:20:20;;;;;;;6.28;3.80;;;;;;;;;;5092196;28;20503;-75
2022/01/08 11:22:51;;;;;;;6.68;3.40;;;;;;;;;;5072115;28;20087;-76
2022/01/08 11:25:21;;;;;;;8.60;4.93;;;;;;;;;;5074124;28;20044;-72
2022/01/08 11:27:49;;;;;;;7.30;3.97;;;;;;;;;;5092290;28;20040;-72
2022/01/08 11:30:23;;;;;;;6.70;3.67;;;;;;;;;;5074222;28;20119;-76
2022/01/08 11:32:58;;;;;;;10.35;3.95;;;;;;;;;;5092100;28;20071;-71
2022/01/08 11:35:42;;;;;;;8.57;3.60;;;;;;;;;;5092290;28;20511;-77
2022/01/08 11:38:11;;;;;;;4.97;3.63;;;;;;;;;;5092359;28;20124;-71
2022/01/08 11:40:41;;;;;;;8.05;3.90;;;;;;;;;;5092149;28;20054;-72
2022/01/08 11:43:09;;;;;;;5.82;3.30;;;;;;;;;;5074365;28;20043;-71
2022/01/08 11:45:40;;;;;;;5.57;3.50;;;;;;;;;;5093575;28;20044;-72
2022/01/08 11:48:09;;;;;;;5.85;3.80;;;;;;;;;;5095822;28;20482;-72
2022/01/08 11:50:55;;;;;;;4.50;3.05;;;;;;;;;;5095816;28;20046;-72
2022/01/08 11:53:25;;;;;;;6.75;3.20;;;;;;;;;;5095690;28;20032;-71
2022/01/08 11:55:54;;;;;;;4.90;2.90;;;;;;;;;;5095698;28;20040;-72
2022/01/08 11:58:32;;;;;;;4.10;3.03;;;;;;;;;;5095426;28;20056;-75
2022/01/08 12:01:11;;;;;;;4.05;3.28;;;;;;;;;;5095364;28;20062;-72
2022/01/08 12:03:49;;;;;;;3.58;2.80;;;;;;;;;;5095724;28;20051;-71
2022/01/08 12:09:08;;;;;;;7.80;3.65;;;;;;;;;;5094811;28;20051;-71
2022/01/08 12:11:42;;;;;;;5.70;3.38;;;;;;;;;;5095645;28;20094;-71
2022/01/08 12:14:11;;;;;;;7.80;3.45;;;;;;;;;;5095243;28;20051;-78
2022/01/08 12:16:39;;;;;;;5.03;3.42;;;;;;;;;;5077536;28;20047;-71
2022/01/08 12:19:09;;;;;;;5.05;3.40;;;;;;;;;;5077211;28;20058;-71
2022/01/08 12:21:38;;;;;;;11.85;4.60;;;;;;;;;;5094622;28;20348;-75
2022/01/08 12:24:29;;;;;;;5.72;3.92;;;;;;;;;;5095138;28;20063;-72
2022/01/08 12:27:00;;;;;;;4.63;3.67;;;;;;;;;;5088376;28;20060;-78
2022/01/08 12:29:38;;;;;;;4.75;3.15;;;;;;;;;;5094637;28;20422;-77
2022/01/08 12:32:32;;;;;;;8.38;3.92;;;;;;;;;;5095290;28;20143;-72
2022/01/08 12:35:19;;;;;;;5.63;3.33;;;;;;;;;;5094858;28;20071;-71
2022/01/08 12:37:47;;;;;;;6.95;5.03;;;;;;;;;;5094879;28;20063;-72
2022/01/08 12:40:38;;;;;;;8.20;4.53;;;;;;;;;;5094764;28;20505;-71
2022/01/08 12:43:24;;;;;;;6.25;3.90;;;;;;;;;;5086856;28;20059;-73
2022/01/08 12:45:52;;;;;;;8.15;3.67;;;;;;;;;;5094287;28;20123;-78
2022/01/08 12:48:20;;;;;;;5.30;3.58;;;;;;;;;;5076434;28;20035;-73
2022/01/08 12:50:48;;;;;;;5.85;3.42;;;;;;;;;;5094581;28;20084;-71
2022/01/08 12:53:16;;;;;;;12.82;4.35;;;;;;;;;;5093729;28;20036;-76
2022/01/08 12:55:44;;;;;;;10.10;4.20;;;;;;;;;;5094040;28;20044;-76
2022/01/08 12:58:19;;;;;;;6.60;4.05;;;;;;;;;;5076319;28;20044;-76
2022/01/08 13:00:56;;;;;;;7.00;3.70;;;;;;;;;;5094397;28;20131;-71
2022/01/08 13:03:25;;;;;;;5.15;3.22;;;;;;;;;;5094309;28;20067;-78
2022/01/08 13:05:53;;;;;;;6.38;2.47;;;;;;;;;;5094346;28;20040;-78
2022/01/08 13:08:22;;;;;;;6.93;3.30;;;;;;;;;;5094508;28;20032;-77
2022/01/08 13:10:56;;;;;;;4.95;2.40;;;;;;;;;;5094207;28;20040;-76
2022/01/08 13:13:24;;;;;;;2.22;1.98;;;;;;;;;;5076012;28;20458;-72
2022/01/08 13:15:53;;;;;;;3.80;1.77;;;;;;;;;;5094056;28;20040;-76
2022/01/08 13:18:23;;;;;;;2.45;1.98;;;;;;;;;;5094237;28;20517;-71
2022/01/08 13:21:00;;;;;;;2.38;2.17;;;;;;;;;;5093757;28;20119;-78
2022/01/08 13:23:28;;;;;;;2.40;1.70;;;;;;;;;;5094037;28;20477;-78
2022/01/08 13:25:57;;;;;;;4.20;2.00;;;;;;;;;;5076161;28;20054;-78
2022/01/08 13:28:25;;;;;;;2.53;1.90;;;;;;;;;;5075877;28;20487;-76
2022/01/08 13:30:54;;;;;;;3.42;1.95;;;;;;;;;;5093910;28;20483;-72
2022/01/08 13:33:26;;;;;;;2.97;2.65;;;;;;;;;;5093398;28;20032;-72
2022/01/08 13:36:12;;;;;;;2.55;2.13;;;;;;;;;;5094081;28;20078;-76
2022/01/08 13:38:54;;;;;;;2.00;1.00;;;;;;;;;;5091893;28;20060;-76
2022/01/08 13:41:25;;;;;;;2.53;1.25;;;;;;;;;;5093691;28;20375;-76
2022/01/08 13:44:03;;;;;;;3.58;1.67;;;;;;;;;;5093651;28;20408;-71
2022/01/08 13:46:33;;;;;;;5.05;1.85;;;;;;;;;;5093304;28;20058;-72
2022/01/08 13:49:07;;;;;;;1.92;1.65;;;;;;;;;;5093558;28;20093;-72
2022/01/08 13:51:37;;;;;;;4.07;1.75;;;;;;;;;;5093640;28;20040;-76
2022/01/08 13:54:07;;;;;;;3.10;1.75;;;;;;;;;;5093304;28;20122;-72
2022/01/08 13:56:36;;;;;;;3.90;2.15;;;;;;;;;;5093224;28;20039;-71
2022/01/08 13:59:05;;;;;;;5.28;2.42;;;;;;;;;;5093532;28;20451;-72
2022/01/08 14:01:46;;;;;;;2.90;2.40;;;;;;;;;;5093232;28;20491;-71
2022/01/08 14:04:14;;;;;;;2.95;2.03;;;;;;;;;;5093384;28;20043;-71
2022/01/08 14:06:44;;;;;;;3.80;2.08;;;;;;;;;;5093320;28;20036;-72
2022/01/08 14:09:18;;;;;;;4.63;2.03;;;;;;;;;;5091845;28;20044;-78
2022/01/08 14:11:48;;;;;;;4.55;3.22;;;;;;;;;;5093260;28;20047;-77
2022/01/08 14:14:19;;;;;;;4.00;2.90;;;;;;;;;;5093222;28;20443;-71
2022/01/08 14:16:48;;;;;;;2.90;2.42;;;;;;;;;;5092873;28;20075;-71
2022/01/08 14:19:19;;;;;;;4.63;2.67;;;;;;;;;;5093167;28;20118;-72
2022/01/08 14:21:55;;;;;;;3.05;1.90;;;;;;;;;;5092711;28;20487;-71
2022/01/08 14:24:23;;;;;;;2.25;1.88;;;;;;;;;;5093039;28;20058;-78
2022/01/08 14:27:09;;;;;;;2.15;1.83;;;;;;;;;;5074784;28;20052;-72
2022/01/08 14:29:38;;;;;;;4.43;2.22;;;;;;;;;;5075320;28;20433;-72
2022/01/08 14:32:07;;;;;;;4.00;1.55;;;;;;;;;;5092805;28;20039;-78
2022/01/08 14:34:45;;;;;;;5.32;1.98;;;;;;;;;;5092919;28;20050;-71
2022/01/08 14:37:16;;;;;;;2.50;2.30;;;;;;;;;;5092976;28;20520;-71
2022/01/08 14:39:45;;;;;;;2.22;1.98;;;;;;;;;;5074438;28;20422;-71
2022/01/08 14:42:17;;;;;;;3.08;2.10;;;;;;;;;;5092816;28;20054;-72
2022/01/08 14:44:57;;;;;;;2.83;1.50;;;;;;;;;;5092773;28;20119;-77
2022/01/08 14:47:31;;;;;;;2.10;1.67;;;;;;;;;;5092627;28;20044;-78
2022/01/08 14:49:59;;;;;;;1.85;1.70;;;;;;;;;;5074779;28;20187;-78
2022/01/08 14:52:27;;;;;;;2.40;2.10;;;;;;;;;;5092765;28;20056;-72
2022/01/08 14:54:55;;;;;;;2.60;1.85;;;;;;;;;;5092782;28;20036;-71
2022/01/08 14:57:23;;;;;;;2.72;2.22;;;;;;;;;;5092367;28;20036;-71
2022/01/08 14:59:50;;;;;;;2.30;1.77;;;;;;;;;;5074815;28;20044;-72
2022/01/08 15:02:19;;;;;;;1.95;1.52;;;;;;;;;;5092481;28;20060;-76
2022/01/08 15:04:47;;;;;;;3.78;1.75;;;;;;;;;;5092554;28;20059;-72
2022/01/08 15:07:15;;;;;;;2.50;1.70;;;;;;;;;;5092239;28;20032;-76
2022/01/08 15:09:42;;;;;;;3.30;1.80;;;;;;;;;;5074489;28;20044;-78
2022/01/08 15:12:10;;;;;;;3.00;2.20;;;;;;;;;;5092604;28;20403;-78
2022/01/08 15:14:39;;;;;;;3.70;2.30;;;;;;;;;;5092588;28;20050;-73
2022/01/08 15:17:07;;;;;;;2.60;1.98;;;;;;;;;;5074676;28;20507;-78
2022/01/08 15:19:34;;;;;;;2.97;2.33;;;;;;;;;;5094039;28;20036;-71
2022/01/08 15:22:03;;;;;;;3.90;2.53;;;;;;;;;;5096147;28;20056;-78
2022/01/08 15:24:33;;;;;;;3.58;2.83;;;;;;;;;;5096284;28;20052;-71
2022/01/08 15:27:01;;;;;;;3.20;2.50;;;;;;;;;;5078151;28;20047;-76